sensor_id;sensor_type;location;lat;lon;timestamp;P1;durP1;ratioP1;P2;durP2;ratioP2
76136;SDS011;68622;53.128;17.966;2023-07-13T00:00:47;13.00;;;8.40;;
76136;SDS011;68622;53.128;17.966;2023-07-13T00:03:33;13.60;;;8.10;;
76136;SDS011;68622;53.128;17.966;2023-07-13T00:06:01;11.80;;;7.20;;
76136;SDS011;68622;53.128;17.966;2023-07-13T00:08:30;13.50;;;7.90;;
76136;SDS011;68622;53.128;17.966;2023-07-13T00:11:02;13.00;;;7.80;;
76136;SDS011;68622;53.128;17.966;2023-07-13T00:13:29;16.50;;;7.80;;
76136;SDS011;68622;53.128;17.966;2023-07-13T00:15:57;14.40;;;8.50;;
76136;SDS011;68622;53.128;17.966;2023-07-13T00:18:24;13.10;;;7.90;;
76136;SDS011;68622;53.128;17.966;2023-07-13T00:20:51;14.00;;;8.10;;
76136;SDS011;68622;53.128;17.966;2023-07-13T00:23:18;13.30;;;8.60;;
76136;SDS011;68622;53.128;17.966;2023-07-13T00:25:45;12.80;;;7.90;;
76136;SDS011;68622;53.128;17.966;2023-07-13T00:28:11;13.70;;;8.60;;
76136;SDS011;68622;53.128;17.966;2023-07-13T00:30:38;15.00;;;8.50;;
76136;SDS011;68622;53.128;17.966;2023-07-13T00:33:05;15.40;;;8.60;;
76136;SDS011;68622;53.128;17.966;2023-07-13T00:35:32;12.20;;;8.10;;
76136;SDS011;68622;53.128;17.966;2023-07-13T00:37:59;13.80;;;8.30;;
76136;SDS011;68622;53.128;17.966;2023-07-13T00:40:26;13.10;;;7.50;;
76136;SDS011;68622;53.128;17.966;2023-07-13T00:42:52;15.80;;;8.20;;
76136;SDS011;68622;53.128;17.966;2023-07-13T00:47:46;13.70;;;8.00;;
76136;SDS011;68622;53.128;17.966;2023-07-13T00:50:13;14.20;;;7.80;;
76136;SDS011;68622;53.128;17.966;2023-07-13T00:52:44;13.70;;;8.10;;
76136;SDS011;68622;53.128;17.966;2023-07-13T00:55:14;13.20;;;8.70;;
76136;SDS011;68622;53.128;17.966;2023-07-13T00:57:42;15.20;;;9.10;;
76136;SDS011;68622;53.128;17.966;2023-07-13T01:00:10;14.90;;;9.30;;
76136;SDS011;68622;53.128;17.966;2023-07-13T01:02:39;13.50;;;8.20;;
76136;SDS011;68622;53.128;17.966;2023-07-13T01:05:15;12.50;;;8.30;;
76136;SDS011;68622;53.128;17.966;2023-07-13T01:07:44;13.70;;;7.80;;
76136;SDS011;68622;53.128;17.966;2023-07-13T01:10:12;13.60;;;8.20;;
76136;SDS011;68622;53.128;17.966;2023-07-13T01:12:39;16.40;;;8.50;;
76136;SDS011;68622;53.128;17.966;2023-07-13T01:18:00;14.20;;;8.20;;
76136;SDS011;68622;53.128;17.966;2023-07-13T01:20:27;14.50;;;8.60;;
76136;SDS011;68622;53.128;17.966;2023-07-13T01:22:54;11.80;;;7.80;;
76136;SDS011;68622;53.128;17.966;2023-07-13T01:25:21;12.90;;;7.60;;
76136;SDS011;68622;53.128;17.966;2023-07-13T01:27:48;14.10;;;8.10;;
76136;SDS011;68622;53.128;17.966;2023-07-13T01:30:15;12.30;;;7.00;;
76136;SDS011;68622;53.128;17.966;2023-07-13T01:32:41;12.40;;;7.60;;
76136;SDS011;68622;53.128;17.966;2023-07-13T01:35:08;13.20;;;7.90;;
76136;SDS011;68622;53.128;17.966;2023-07-13T01:37:35;13.20;;;8.80;;
76136;SDS011;68622;53.128;17.966;2023-07-13T01:40:03;16.50;;;8.30;;
76136;SDS011;68622;53.128;17.966;2023-07-13T01:42:31;13.00;;;8.00;;
76136;SDS011;68622;53.128;17.966;2023-07-13T01:44:57;14.90;;;8.50;;
76136;SDS011;68622;53.128;17.966;2023-07-13T01:47:24;14.70;;;8.30;;
76136;SDS011;68622;53.128;17.966;2023-07-13T01:49:52;14.50;;;8.00;;
76136;SDS011;68622;53.128;17.966;2023-07-13T01:52:19;15.00;;;8.00;;
76136;SDS011;68622;53.128;17.966;2023-07-13T01:54:45;16.80;;;8.40;;
76136;SDS011;68622;53.128;17.966;2023-07-13T01:57:12;12.60;;;7.90;;
76136;SDS011;68622;53.128;17.966;2023-07-13T01:59:38;12.40;;;7.80;;
76136;SDS011;68622;53.128;17.966;2023-07-13T02:02:07;13.90;;;7.50;;
76136;SDS011;68622;53.128;17.966;2023-07-13T02:04:33;16.10;;;8.10;;
76136;SDS011;68622;53.128;17.966;2023-07-13T02:07:00;11.80;;;7.80;;
76136;SDS011;68622;53.128;17.966;2023-07-13T02:09:27;12.30;;;6.80;;
76136;SDS011;68622;53.128;17.966;2023-07-13T02:11:53;14.10;;;7.90;;
76136;SDS011;68622;53.128;17.966;2023-07-13T02:14:20;13.50;;;7.70;;
76136;SDS011;68622;53.128;17.966;2023-07-13T02:16:47;12.80;;;7.20;;
76136;SDS011;68622;53.128;17.966;2023-07-13T02:19:14;13.50;;;7.50;;
76136;SDS011;68622;53.128;17.966;2023-07-13T02:21:41;12.60;;;7.30;;
76136;SDS011;68622;53.128;17.966;2023-07-13T02:24:07;13.40;;;7.00;;
76136;SDS011;68622;53.128;17.966;2023-07-13T02:26:35;12.40;;;7.90;;
76136;SDS011;68622;53.128;17.966;2023-07-13T02:29:02;13.10;;;7.80;;
76136;SDS011;68622;53.128;17.966;2023-07-13T02:31:29;10.90;;;6.90;;
76136;SDS011;68622;53.128;17.966;2023-07-13T02:33:55;11.60;;;7.70;;
76136;SDS011;68622;53.128;17.966;2023-07-13T02:36:22;13.20;;;7.80;;
76136;SDS011;68622;53.128;17.966;2023-07-13T02:38:49;12.20;;;6.70;;
76136;SDS011;68622;53.128;17.966;2023-07-13T02:41:16;14.60;;;7.60;;
76136;SDS011;68622;53.128;17.966;2023-07-13T02:43:43;14.50;;;7.60;;
76136;SDS011;68622;53.128;17.966;2023-07-13T02:46:09;10.40;;;6.80;;
76136;SDS011;68622;53.128;17.966;2023-07-13T02:48:37;10.70;;;6.80;;
76136;SDS011;68622;53.128;17.966;2023-07-13T02:51:05;13.50;;;7.40;;
76136;SDS011;68622;53.128;17.966;2023-07-13T02:53:32;12.50;;;7.60;;
76136;SDS011;68622;53.128;17.966;2023-07-13T02:55:59;13.20;;;7.50;;
76136;SDS011;68622;53.128;17.966;2023-07-13T02:58:25;13.00;;;7.50;;
76136;SDS011;68622;53.128;17.966;2023-07-13T03:00:52;14.40;;;8.30;;
76136;SDS011;68622;53.128;17.966;2023-07-13T03:03:19;13.90;;;9.80;;
76136;SDS011;68622;53.128;17.966;2023-07-13T03:05:47;11.50;;;7.80;;
76136;SDS011;68622;53.128;17.966;2023-07-13T03:08:17;12.10;;;7.10;;
76136;SDS011;68622;53.128;17.966;2023-07-13T03:10:44;13.60;;;7.90;;
76136;SDS011;68622;53.128;17.966;2023-07-13T03:13:12;14.30;;;7.00;;
76136;SDS011;68622;53.128;17.966;2023-07-13T03:15:39;13.40;;;7.50;;
76136;SDS011;68622;53.128;17.966;2023-07-13T03:18:06;13.30;;;7.50;;
76136;SDS011;68622;53.128;17.966;2023-07-13T03:20:33;17.30;;;7.80;;
76136;SDS011;68622;53.128;17.966;2023-07-13T03:23:01;15.90;;;8.10;;
76136;SDS011;68622;53.128;17.966;2023-07-13T03:25:29;13.90;;;7.80;;
76136;SDS011;68622;53.128;17.966;2023-07-13T03:27:56;12.60;;;7.10;;
76136;SDS011;68622;53.128;17.966;2023-07-13T03:30:23;11.90;;;7.20;;
76136;SDS011;68622;53.128;17.966;2023-07-13T03:32:50;13.20;;;7.60;;
76136;SDS011;68622;53.128;17.966;2023-07-13T03:35:17;16.20;;;8.00;;
76136;SDS011;68622;53.128;17.966;2023-07-13T03:37:44;13.80;;;8.00;;
76136;SDS011;68622;53.128;17.966;2023-07-13T03:40:14;19.50;;;8.80;;
76136;SDS011;68622;53.128;17.966;2023-07-13T03:42:43;12.80;;;8.20;;
76136;SDS011;68622;53.128;17.966;2023-07-13T03:45:10;19.10;;;8.50;;
76136;SDS011;68622;53.128;17.966;2023-07-13T03:47:36;16.10;;;8.80;;
76136;SDS011;68622;53.128;17.966;2023-07-13T03:50:04;13.20;;;8.30;;
76136;SDS011;68622;53.128;17.966;2023-07-13T03:52:31;15.30;;;8.60;;
76136;SDS011;68622;53.128;17.966;2023-07-13T03:54:58;12.50;;;7.70;;
76136;SDS011;68622;53.128;17.966;2023-07-13T03:57:25;15.40;;;7.50;;
76136;SDS011;68622;53.128;17.966;2023-07-13T03:59:52;14.30;;;8.30;;
76136;SDS011;68622;53.128;17.966;2023-07-13T04:02:19;15.10;;;8.60;;
76136;SDS011;68622;53.128;17.966;2023-07-13T04:04:45;12.50;;;7.90;;
76136;SDS011;68622;53.128;17.966;2023-07-13T04:07:12;16.20;;;8.30;;
76136;SDS011;68622;53.128;17.966;2023-07-13T04:09:40;13.80;;;7.60;;
76136;SDS011;68622;53.128;17.966;2023-07-13T04:12:06;11.60;;;7.70;;
76136;SDS011;68622;53.128;17.966;2023-07-13T04:14:33;14.00;;;8.40;;
76136;SDS011;68622;53.128;17.966;2023-07-13T04:17:00;15.80;;;8.70;;
76136;SDS011;68622;53.128;17.966;2023-07-13T04:19:26;14.70;;;8.70;;
76136;SDS011;68622;53.128;17.966;2023-07-13T04:21:54;14.40;;;7.80;;
76136;SDS011;68622;53.128;17.966;2023-07-13T04:24:21;13.10;;;7.30;;
76136;SDS011;68622;53.128;17.966;2023-07-13T04:26:48;15.40;;;7.60;;
76136;SDS011;68622;53.128;17.966;2023-07-13T04:29:14;14.30;;;7.40;;
76136;SDS011;68622;53.128;17.966;2023-07-13T04:31:41;13.70;;;7.20;;
76136;SDS011;68622;53.128;17.966;2023-07-13T04:34:08;12.50;;;7.30;;
76136;SDS011;68622;53.128;17.966;2023-07-13T04:36:34;11.70;;;6.50;;
76136;SDS011;68622;53.128;17.966;2023-07-13T04:39:04;13.30;;;6.30;;
76136;SDS011;68622;53.128;17.966;2023-07-13T04:41:30;14.70;;;7.20;;
76136;SDS011;68622;53.128;17.966;2023-07-13T04:43:57;12.70;;;6.80;;
76136;SDS011;68622;53.128;17.966;2023-07-13T04:46:25;12.00;;;6.90;;
76136;SDS011;68622;53.128;17.966;2023-07-13T04:48:52;15.20;;;7.00;;
76136;SDS011;68622;53.128;17.966;2023-07-13T04:51:20;13.40;;;6.60;;
76136;SDS011;68622;53.128;17.966;2023-07-13T04:53:47;12.80;;;6.40;;
76136;SDS011;68622;53.128;17.966;2023-07-13T04:56:13;11.70;;;6.30;;
76136;SDS011;68622;53.128;17.966;2023-07-13T04:58:40;12.80;;;6.30;;
76136;SDS011;68622;53.128;17.966;2023-07-13T05:01:07;11.70;;;6.30;;
76136;SDS011;68622;53.128;17.966;2023-07-13T05:03:35;11.50;;;6.10;;
76136;SDS011;68622;53.128;17.966;2023-07-13T05:06:03;15.20;;;6.60;;
76136;SDS011;68622;53.128;17.966;2023-07-13T05:08:33;12.90;;;6.10;;
76136;SDS011;68622;53.128;17.966;2023-07-13T05:11:00;13.80;;;6.60;;
76136;SDS011;68622;53.128;17.966;2023-07-13T05:13:28;11.40;;;5.70;;
76136;SDS011;68622;53.128;17.966;2023-07-13T05:15:56;12.50;;;6.50;;
76136;SDS011;68622;53.128;17.966;2023-07-13T05:18:25;11.50;;;5.90;;
76136;SDS011;68622;53.128;17.966;2023-07-13T05:20:58;13.50;;;8.10;;
76136;SDS011;68622;53.128;17.966;2023-07-13T05:23:32;10.90;;;5.60;;
76136;SDS011;68622;53.128;17.966;2023-07-13T05:26:01;18.20;;;6.50;;
76136;SDS011;68622;53.128;17.966;2023-07-13T05:28:30;11.20;;;4.90;;
76136;SDS011;68622;53.128;17.966;2023-07-13T05:30:57;11.00;;;5.50;;
76136;SDS011;68622;53.128;17.966;2023-07-13T05:33:24;12.90;;;6.10;;
76136;SDS011;68622;53.128;17.966;2023-07-13T05:35:52;9.80;;;4.60;;
76136;SDS011;68622;53.128;17.966;2023-07-13T05:38:19;12.60;;;5.10;;
76136;SDS011;68622;53.128;17.966;2023-07-13T05:40:46;10.50;;;4.90;;
76136;SDS011;68622;53.128;17.966;2023-07-13T05:43:13;11.10;;;4.50;;
76136;SDS011;68622;53.128;17.966;2023-07-13T05:45:41;10.50;;;4.90;;
76136;SDS011;68622;53.128;17.966;2023-07-13T05:48:08;17.80;;;5.80;;
76136;SDS011;68622;53.128;17.966;2023-07-13T05:50:34;11.80;;;4.50;;
76136;SDS011;68622;53.128;17.966;2023-07-13T05:53:02;10.60;;;4.00;;
76136;SDS011;68622;53.128;17.966;2023-07-13T05:55:29;10.30;;;4.00;;
76136;SDS011;68622;53.128;17.966;2023-07-13T05:57:55;9.60;;;4.30;;
76136;SDS011;68622;53.128;17.966;2023-07-13T06:00:25;9.00;;;3.70;;
76136;SDS011;68622;53.128;17.966;2023-07-13T06:02:52;8.90;;;4.00;;
76136;SDS011;68622;53.128;17.966;2023-07-13T06:05:19;12.40;;;4.40;;
76136;SDS011;68622;53.128;17.966;2023-07-13T06:07:45;9.40;;;4.20;;
76136;SDS011;68622;53.128;17.966;2023-07-13T06:10:12;16.70;;;4.30;;
76136;SDS011;68622;53.128;17.966;2023-07-13T06:12:38;9.90;;;3.00;;
76136;SDS011;68622;53.128;17.966;2023-07-13T06:15:05;7.70;;;2.90;;
76136;SDS011;68622;53.128;17.966;2023-07-13T06:17:33;9.40;;;3.40;;
76136;SDS011;68622;53.128;17.966;2023-07-13T06:19:59;9.40;;;3.40;;
76136;SDS011;68622;53.128;17.966;2023-07-13T06:22:26;8.90;;;3.70;;
76136;SDS011;68622;53.128;17.966;2023-07-13T06:24:53;8.90;;;3.80;;
76136;SDS011;68622;53.128;17.966;2023-07-13T06:27:19;6.90;;;3.30;;
76136;SDS011;68622;53.128;17.966;2023-07-13T06:29:46;9.20;;;4.00;;
76136;SDS011;68622;53.128;17.966;2023-07-13T06:32:13;10.10;;;3.20;;
76136;SDS011;68622;53.128;17.966;2023-07-13T06:34:39;10.50;;;3.90;;
76136;SDS011;68622;53.128;17.966;2023-07-13T06:37:06;8.20;;;3.10;;
76136;SDS011;68622;53.128;17.966;2023-07-13T06:39:33;7.40;;;3.40;;
76136;SDS011;68622;53.128;17.966;2023-07-13T06:41:59;10.20;;;3.60;;
76136;SDS011;68622;53.128;17.966;2023-07-13T06:44:26;10.00;;;4.30;;
76136;SDS011;68622;53.128;17.966;2023-07-13T06:46:54;6.80;;;3.00;;
76136;SDS011;68622;53.128;17.966;2023-07-13T06:49:20;8.70;;;3.40;;
76136;SDS011;68622;53.128;17.966;2023-07-13T06:51:47;9.00;;;3.30;;
76136;SDS011;68622;53.128;17.966;2023-07-13T06:54:14;7.80;;;2.80;;
76136;SDS011;68622;53.128;17.966;2023-07-13T06:56:41;8.50;;;3.00;;
76136;SDS011;68622;53.128;17.966;2023-07-13T06:59:08;10.20;;;3.30;;
76136;SDS011;68622;53.128;17.966;2023-07-13T07:01:36;7.90;;;2.90;;
76136;SDS011;68622;53.128;17.966;2023-07-13T07:04:03;7.70;;;2.80;;
76136;SDS011;68622;53.128;17.966;2023-07-13T07:06:30;8.30;;;3.00;;
76136;SDS011;68622;53.128;17.966;2023-07-13T07:08:56;9.10;;;3.40;;
76136;SDS011;68622;53.128;17.966;2023-07-13T07:11:24;8.30;;;3.20;;
76136;SDS011;68622;53.128;17.966;2023-07-13T07:13:52;8.30;;;2.20;;
76136;SDS011;68622;53.128;17.966;2023-07-13T07:16:20;6.80;;;2.10;;
76136;SDS011;68622;53.128;17.966;2023-07-13T07:18:47;9.00;;;3.00;;
76136;SDS011;68622;53.128;17.966;2023-07-13T07:21:14;8.20;;;2.50;;
76136;SDS011;68622;53.128;17.966;2023-07-13T07:23:42;9.60;;;2.50;;
76136;SDS011;68622;53.128;17.966;2023-07-13T07:26:09;7.70;;;2.50;;
76136;SDS011;68622;53.128;17.966;2023-07-13T07:28:36;8.50;;;2.60;;
76136;SDS011;68622;53.128;17.966;2023-07-13T07:31:03;6.90;;;2.30;;
76136;SDS011;68622;53.128;17.966;2023-07-13T07:33:30;9.40;;;2.50;;
76136;SDS011;68622;53.128;17.966;2023-07-13T07:35:56;9.20;;;3.10;;
76136;SDS011;68622;53.128;17.966;2023-07-13T07:38:23;9.30;;;2.70;;
76136;SDS011;68622;53.128;17.966;2023-07-13T07:40:49;9.50;;;3.00;;
76136;SDS011;68622;53.128;17.966;2023-07-13T07:43:16;8.10;;;2.40;;
76136;SDS011;68622;53.128;17.966;2023-07-13T07:45:43;9.60;;;2.40;;
76136;SDS011;68622;53.128;17.966;2023-07-13T07:48:11;9.30;;;2.60;;
76136;SDS011;68622;53.128;17.966;2023-07-13T07:50:38;7.80;;;2.80;;
76136;SDS011;68622;53.128;17.966;2023-07-13T07:53:06;7.50;;;2.80;;
76136;SDS011;68622;53.128;17.966;2023-07-13T07:55:34;9.10;;;2.60;;
76136;SDS011;68622;53.128;17.966;2023-07-13T07:58:04;10.10;;;2.80;;
76136;SDS011;68622;53.128;17.966;2023-07-13T08:00:32;9.50;;;2.90;;
76136;SDS011;68622;53.128;17.966;2023-07-13T08:02:59;11.50;;;3.00;;
76136;SDS011;68622;53.128;17.966;2023-07-13T08:05:26;7.10;;;2.50;;
76136;SDS011;68622;53.128;17.966;2023-07-13T08:07:53;8.50;;;2.30;;
76136;SDS011;68622;53.128;17.966;2023-07-13T08:10:20;8.10;;;2.50;;
76136;SDS011;68622;53.128;17.966;2023-07-13T08:12:47;6.40;;;2.30;;
76136;SDS011;68622;53.128;17.966;2023-07-13T08:15:15;7.40;;;2.60;;
76136;SDS011;68622;53.128;17.966;2023-07-13T08:17:43;9.40;;;2.20;;
76136;SDS011;68622;53.128;17.966;2023-07-13T08:20:09;7.30;;;2.50;;
76136;SDS011;68622;53.128;17.966;2023-07-13T08:22:37;8.20;;;2.40;;
76136;SDS011;68622;53.128;17.966;2023-07-13T08:25:03;7.20;;;2.20;;
76136;SDS011;68622;53.128;17.966;2023-07-13T08:27:30;9.60;;;2.60;;
76136;SDS011;68622;53.128;17.966;2023-07-13T08:29:57;6.40;;;2.10;;
76136;SDS011;68622;53.128;17.966;2023-07-13T08:32:24;7.50;;;2.10;;
76136;SDS011;68622;53.128;17.966;2023-07-13T08:34:51;7.80;;;2.60;;
76136;SDS011;68622;53.128;17.966;2023-07-13T08:37:18;6.90;;;2.30;;
76136;SDS011;68622;53.128;17.966;2023-07-13T08:39:46;9.90;;;2.40;;
76136;SDS011;68622;53.128;17.966;2023-07-13T08:42:16;7.80;;;2.20;;
76136;SDS011;68622;53.128;17.966;2023-07-13T08:47:32;10.60;;;2.70;;
76136;SDS011;68622;53.128;17.966;2023-07-13T08:50:03;7.50;;;2.00;;
76136;SDS011;68622;53.128;17.966;2023-07-13T08:52:35;5.60;;;2.50;;
76136;SDS011;68622;53.128;17.966;2023-07-13T08:55:12;10.40;;;2.20;;
76136;SDS011;68622;53.128;17.966;2023-07-13T08:57:43;9.40;;;2.30;;
76136;SDS011;68622;53.128;17.966;2023-07-13T09:00:12;12.40;;;2.90;;
76136;SDS011;68622;53.128;17.966;2023-07-13T09:02:59;8.40;;;2.50;;
76136;SDS011;68622;53.128;17.966;2023-07-13T09:05:31;7.40;;;2.50;;
76136;SDS011;68622;53.128;17.966;2023-07-13T09:08:13;8.20;;;1.90;;
76136;SDS011;68622;53.128;17.966;2023-07-13T09:13:47;8.00;;;2.20;;
76136;SDS011;68622;53.128;17.966;2023-07-13T09:16:37;6.10;;;2.20;;
76136;SDS011;68622;53.128;17.966;2023-07-13T09:19:05;6.20;;;2.00;;
76136;SDS011;68622;53.128;17.966;2023-07-13T09:21:39;8.00;;;2.30;;
76136;SDS011;68622;53.128;17.966;2023-07-13T09:24:55;7.00;;;2.20;;
76136;SDS011;68622;53.128;17.966;2023-07-13T09:27:15;7.20;;;2.50;;
76136;SDS011;68622;53.128;17.966;2023-07-13T09:29:48;8.80;;;2.80;;
76136;SDS011;68622;53.128;17.966;2023-07-13T09:32:21;4.70;;;1.80;;
76136;SDS011;68622;53.128;17.966;2023-07-13T09:34:54;8.10;;;2.10;;
76136;SDS011;68622;53.128;17.966;2023-07-13T09:37:22;5.90;;;2.10;;
76136;SDS011;68622;53.128;17.966;2023-07-13T09:39:54;7.10;;;2.50;;
76136;SDS011;68622;53.128;17.966;2023-07-13T09:42:22;5.80;;;1.90;;
76136;SDS011;68622;53.128;17.966;2023-07-13T09:44:56;7.60;;;2.00;;
76136;SDS011;68622;53.128;17.966;2023-07-13T09:47:27;7.60;;;2.40;;
76136;SDS011;68622;53.128;17.966;2023-07-13T09:49:57;7.60;;;2.20;;
76136;SDS011;68622;53.128;17.966;2023-07-13T09:52:26;7.30;;;2.20;;
76136;SDS011;68622;53.128;17.966;2023-07-13T09:55:11;9.50;;;2.40;;
76136;SDS011;68622;53.128;17.966;2023-07-13T09:57:51;8.20;;;2.40;;
76136;SDS011;68622;53.128;17.966;2023-07-13T10:00:20;6.60;;;2.30;;
76136;SDS011;68622;53.128;17.966;2023-07-13T10:03:26;5.30;;;2.20;;
76136;SDS011;68622;53.128;17.966;2023-07-13T10:05:51;6.70;;;2.30;;
76136;SDS011;68622;53.128;17.966;2023-07-13T10:08:20;7.90;;;2.30;;
76136;SDS011;68622;53.128;17.966;2023-07-13T10:10:53;6.30;;;2.40;;
76136;SDS011;68622;53.128;17.966;2023-07-13T10:13:40;6.00;;;2.10;;
76136;SDS011;68622;53.128;17.966;2023-07-13T10:16:09;6.30;;;1.80;;
76136;SDS011;68622;53.128;17.966;2023-07-13T10:18:42;6.70;;;2.20;;
76136;SDS011;68622;53.128;17.966;2023-07-13T10:21:20;7.40;;;2.20;;
76136;SDS011;68622;53.128;17.966;2023-07-13T10:23:51;13.30;;;2.60;;
76136;SDS011;68622;53.128;17.966;2023-07-13T10:26:23;7.50;;;2.30;;
76136;SDS011;68622;53.128;17.966;2023-07-13T10:28:54;5.50;;;2.00;;
76136;SDS011;68622;53.128;17.966;2023-07-13T10:31:24;4.70;;;1.90;;
76136;SDS011;68622;53.128;17.966;2023-07-13T10:33:51;6.60;;;1.80;;
76136;SDS011;68622;53.128;17.966;2023-07-13T10:36:34;5.80;;;2.20;;
76136;SDS011;68622;53.128;17.966;2023-07-13T10:39:07;7.30;;;2.30;;
76136;SDS011;68622;53.128;17.966;2023-07-13T10:41:41;5.80;;;1.90;;
76136;SDS011;68622;53.128;17.966;2023-07-13T10:44:18;6.40;;;2.10;;
76136;SDS011;68622;53.128;17.966;2023-07-13T10:46:55;7.60;;;2.70;;
76136;SDS011;68622;53.128;17.966;2023-07-13T10:49:31;6.00;;;1.80;;
76136;SDS011;68622;53.128;17.966;2023-07-13T10:51:59;6.30;;;1.80;;
76136;SDS011;68622;53.128;17.966;2023-07-13T10:57:12;5.20;;;1.90;;
76136;SDS011;68622;53.128;17.966;2023-07-13T10:59:43;5.20;;;1.80;;
76136;SDS011;68622;53.128;17.966;2023-07-13T11:04:55;6.60;;;1.80;;
76136;SDS011;68622;53.128;17.966;2023-07-13T11:07:27;8.00;;;2.20;;
76136;SDS011;68622;53.128;17.966;2023-07-13T11:09:59;7.10;;;1.80;;
76136;SDS011;68622;53.128;17.966;2023-07-13T11:15:15;7.30;;;2.00;;
76136;SDS011;68622;53.128;17.966;2023-07-13T11:17:55;6.40;;;2.10;;
76136;SDS011;68622;53.128;17.966;2023-07-13T11:20:33;6.90;;;2.50;;
76136;SDS011;68622;53.128;17.966;2023-07-13T11:25:44;7.50;;;2.30;;
76136;SDS011;68622;53.128;17.966;2023-07-13T11:33:25;7.60;;;2.60;;
76136;SDS011;68622;53.128;17.966;2023-07-13T11:41:05;7.10;;;2.20;;
76136;SDS011;68622;53.128;17.966;2023-07-13T11:43:44;8.00;;;2.30;;
76136;SDS011;68622;53.128;17.966;2023-07-13T11:46:16;8.60;;;3.10;;
76136;SDS011;68622;53.128;17.966;2023-07-13T11:48:47;7.20;;;2.50;;
76136;SDS011;68622;53.128;17.966;2023-07-13T11:51:17;6.90;;;2.40;;
76136;SDS011;68622;53.128;17.966;2023-07-13T11:53:54;8.50;;;2.90;;
76136;SDS011;68622;53.128;17.966;2023-07-13T11:56:23;6.80;;;2.60;;
76136;SDS011;68622;53.128;17.966;2023-07-13T11:58:53;6.70;;;2.70;;
76136;SDS011;68622;53.128;17.966;2023-07-13T12:01:26;6.00;;;2.20;;
76136;SDS011;68622;53.128;17.966;2023-07-13T12:03:59;8.40;;;2.70;;
76136;SDS011;68622;53.128;17.966;2023-07-13T12:06:32;10.10;;;3.50;;
76136;SDS011;68622;53.128;17.966;2023-07-13T12:09:12;7.50;;;2.50;;
76136;SDS011;68622;53.128;17.966;2023-07-13T12:11:42;6.00;;;2.50;;
76136;SDS011;68622;53.128;17.966;2023-07-13T12:14:15;5.40;;;2.30;;
76136;SDS011;68622;53.128;17.966;2023-07-13T12:16:43;6.70;;;2.50;;
76136;SDS011;68622;53.128;17.966;2023-07-13T12:21:45;9.00;;;3.10;;
76136;SDS011;68622;53.128;17.966;2023-07-13T12:24:16;7.40;;;2.60;;
76136;SDS011;68622;53.128;17.966;2023-07-13T12:26:48;6.80;;;2.40;;
76136;SDS011;68622;53.128;17.966;2023-07-13T12:29:18;7.30;;;2.40;;
76136;SDS011;68622;53.128;17.966;2023-07-13T12:31:45;5.60;;;2.10;;
76136;SDS011;68622;53.128;17.966;2023-07-13T12:34:16;9.60;;;2.20;;
76136;SDS011;68622;53.128;17.966;2023-07-13T12:39:25;7.30;;;3.40;;
76136;SDS011;68622;53.128;17.966;2023-07-13T12:44:51;5.20;;;2.30;;
76136;SDS011;68622;53.128;17.966;2023-07-13T12:47:38;6.00;;;2.50;;
76136;SDS011;68622;53.128;17.966;2023-07-13T12:50:18;6.40;;;2.20;;
76136;SDS011;68622;53.128;17.966;2023-07-13T12:52:51;7.80;;;2.50;;
76136;SDS011;68622;53.128;17.966;2023-07-13T12:55:21;5.80;;;2.50;;
76136;SDS011;68622;53.128;17.966;2023-07-13T13:00:33;6.10;;;2.60;;
76136;SDS011;68622;53.128;17.966;2023-07-13T13:03:21;6.80;;;2.50;;
76136;SDS011;68622;53.128;17.966;2023-07-13T13:06:27;6.60;;;3.00;;
76136;SDS011;68622;53.128;17.966;2023-07-13T13:08:45;6.40;;;2.20;;
76136;SDS011;68622;53.128;17.966;2023-07-13T13:11:15;6.40;;;2.60;;
76136;SDS011;68622;53.128;17.966;2023-07-13T13:13:42;6.60;;;2.50;;
76136;SDS011;68622;53.128;17.966;2023-07-13T13:16:16;5.80;;;2.40;;
76136;SDS011;68622;53.128;17.966;2023-07-13T13:18:53;9.10;;;2.70;;
76136;SDS011;68622;53.128;17.966;2023-07-13T13:21:23;7.10;;;2.70;;
76136;SDS011;68622;53.128;17.966;2023-07-13T13:23:51;9.50;;;2.60;;
76136;SDS011;68622;53.128;17.966;2023-07-13T13:26:23;7.90;;;2.50;;
76136;SDS011;68622;53.128;17.966;2023-07-13T13:28:50;6.40;;;2.00;;
76136;SDS011;68622;53.128;17.966;2023-07-13T13:31:16;7.30;;;2.40;;
76136;SDS011;68622;53.128;17.966;2023-07-13T13:33:44;7.50;;;2.90;;
76136;SDS011;68622;53.128;17.966;2023-07-13T13:36:16;7.00;;;2.50;;
76136;SDS011;68622;53.128;17.966;2023-07-13T13:38:45;7.10;;;2.60;;
76136;SDS011;68622;53.128;17.966;2023-07-13T13:41:14;6.60;;;2.50;;
76136;SDS011;68622;53.128;17.966;2023-07-13T13:43:41;7.90;;;3.20;;
76136;SDS011;68622;53.128;17.966;2023-07-13T13:46:15;6.40;;;2.70;;
76136;SDS011;68622;53.128;17.966;2023-07-13T13:48:44;8.00;;;2.80;;
76136;SDS011;68622;53.128;17.966;2023-07-13T13:51:14;7.60;;;2.70;;
76136;SDS011;68622;53.128;17.966;2023-07-13T13:53:45;7.90;;;2.50;;
76136;SDS011;68622;53.128;17.966;2023-07-13T13:56:13;7.20;;;3.10;;
76136;SDS011;68622;53.128;17.966;2023-07-13T13:58:41;8.30;;;3.00;;
76136;SDS011;68622;53.128;17.966;2023-07-13T14:01:12;6.20;;;2.90;;
76136;SDS011;68622;53.128;17.966;2023-07-13T14:03:43;9.00;;;2.80;;
76136;SDS011;68622;53.128;17.966;2023-07-13T14:06:12;9.60;;;3.00;;
76136;SDS011;68622;53.128;17.966;2023-07-13T14:08:39;7.50;;;3.40;;
76136;SDS011;68622;53.128;17.966;2023-07-13T14:11:07;7.50;;;2.70;;
76136;SDS011;68622;53.128;17.966;2023-07-13T14:13:42;7.60;;;2.60;;
76136;SDS011;68622;53.128;17.966;2023-07-13T14:16:15;6.50;;;1.90;;
76136;SDS011;68622;53.128;17.966;2023-07-13T14:18:47;5.70;;;1.90;;
76136;SDS011;68622;53.128;17.966;2023-07-13T14:21:19;5.30;;;1.80;;
76136;SDS011;68622;53.128;17.966;2023-07-13T14:23:47;6.00;;;1.80;;
76136;SDS011;68622;53.128;17.966;2023-07-13T14:26:17;4.40;;;1.50;;
76136;SDS011;68622;53.128;17.966;2023-07-13T14:28:47;5.70;;;1.90;;
76136;SDS011;68622;53.128;17.966;2023-07-13T14:31:16;6.50;;;1.70;;
76136;SDS011;68622;53.128;17.966;2023-07-13T14:33:43;5.20;;;1.50;;
76136;SDS011;68622;53.128;17.966;2023-07-13T14:36:16;5.40;;;1.60;;
76136;SDS011;68622;53.128;17.966;2023-07-13T14:38:47;5.40;;;1.50;;
76136;SDS011;68622;53.128;17.966;2023-07-13T14:41:14;7.80;;;2.30;;
76136;SDS011;68622;53.128;17.966;2023-07-13T14:43:40;7.00;;;1.90;;
76136;SDS011;68622;53.128;17.966;2023-07-13T14:46:08;5.60;;;1.80;;
76136;SDS011;68622;53.128;17.966;2023-07-13T14:48:49;4.90;;;1.50;;
76136;SDS011;68622;53.128;17.966;2023-07-13T14:51:16;4.20;;;1.50;;
76136;SDS011;68622;53.128;17.966;2023-07-13T14:53:42;4.80;;;1.50;;
76136;SDS011;68622;53.128;17.966;2023-07-13T14:56:12;6.40;;;1.50;;
76136;SDS011;68622;53.128;17.966;2023-07-13T14:58:39;5.90;;;2.30;;
76136;SDS011;68622;53.128;17.966;2023-07-13T15:01:13;4.20;;;1.60;;
76136;SDS011;68622;53.128;17.966;2023-07-13T15:03:43;6.20;;;2.00;;
76136;SDS011;68622;53.128;17.966;2023-07-13T15:06:12;5.20;;;1.40;;
76136;SDS011;68622;53.128;17.966;2023-07-13T15:08:40;5.20;;;1.70;;
76136;SDS011;68622;53.128;17.966;2023-07-13T15:11:09;4.80;;;1.80;;
76136;SDS011;68622;53.128;17.966;2023-07-13T15:13:40;5.20;;;1.40;;
76136;SDS011;68622;53.128;17.966;2023-07-13T15:16:23;3.50;;;1.20;;
76136;SDS011;68622;53.128;17.966;2023-07-13T15:18:51;4.30;;;1.20;;
76136;SDS011;68622;53.128;17.966;2023-07-13T15:21:19;5.20;;;1.50;;
76136;SDS011;68622;53.128;17.966;2023-07-13T15:23:50;3.80;;;1.30;;